Time;durP1;ratioP1;P1;durP2;ratioP2;P2;SDS_P1;SDS_P2;PMS_P1;PMS_P2;Temp;Humidity;BMP_temperature;BMP_pressure;BME280_temperature;BME280_humidity;BME280_pressure;Samples;Min_cycle;Max_cycle;Signal;HPM_P1;HPM_P2
2022/02/10 00:13:22;;;;;;;11.45;2.58;;;6.80;99.90;;;;;;5029092;28;20049;-68
2022/02/10 00:21:49;;;;;;;14.40;2.53;;;6.80;99.90;;;;;;5029959;28;20386;-68
2022/02/10 00:35:02;;;;;;;19.25;3.95;;;7.00;99.90;;;;;;5030041;28;20045;-66
2022/02/10 00:38:07;;;;;;;12.13;2.17;;;7.10;99.90;;;;;;5028937;28;20036;-66
2022/02/10 00:41:11;;;;;;;17.88;4.88;;;7.10;99.90;;;;;;5032619;28;20044;-66
2022/02/10 00:44:15;;;;;;;12.70;2.40;;;7.10;99.90;;;;;;5033228;28;20044;-66
2022/02/10 00:47:19;;;;;;;12.55;3.25;;;7.20;99.90;;;;;;5034127;28;20045;-66
2022/02/10 00:50:26;;;;;;;20.77;3.42;;;7.20;99.90;;;;;;5032795;28;20056;-66
2022/02/10 00:53:32;;;;;;;18.50;2.63;;;7.20;99.90;;;;;;5032907;28;20539;-66
2022/02/10 00:56:35;;;;;;;16.90;3.28;;;7.30;99.90;;;;;;5033384;28;20044;-66
2022/02/10 01:12:49;;;;;;;12.10;3.28;;;7.60;99.90;;;;;;5034442;28;20052;-66
2022/02/10 01:32:38;;;;;;;14.82;3.10;;;7.40;99.90;;;;;;5033311;28;20037;-66
2022/02/10 01:35:42;;;;;;;22.08;3.65;;;7.40;99.90;;;;;;5032048;28;20053;-66
2022/02/10 01:38:46;;;;;;;18.35;2.80;;;7.40;99.90;;;;;;5034312;28;20048;-66
2022/02/10 02:05:32;;;;;;;21.17;4.38;;;6.40;99.90;;;;;;5032604;28;19916;-66
2022/02/10 02:08:38;;;;;;;25.13;4.28;;;6.00;99.90;;;;;;5032550;28;20036;-66
2022/02/10 02:11:47;;;;;;;16.00;3.80;;;5.90;99.90;;;;;;5033947;28;20043;-66
2022/02/10 02:14:51;;;;;;;22.08;4.43;;;5.90;99.90;;;;;;5034020;28;20396;-66
2022/02/10 02:17:55;;;;;;;16.48;4.32;;;5.90;99.90;;;;;;5032359;28;20046;-66
2022/02/10 02:20:59;;;;;;;19.50;4.43;;;5.80;99.90;;;;;;5032390;28;20049;-66
2022/02/10 02:24:04;;;;;;;24.55;6.25;;;5.70;99.90;;;;;;5034428;28;20048;-66
2022/02/10 02:27:15;;;;;;;23.75;5.43;;;5.80;99.90;;;;;;5033282;28;20045;-66
2022/02/10 02:30:24;;;;;;;;;;;5.80;99.90;;;;;;5034224;28;20052;-66
2022/02/10 02:37:24;;;;;;;20.35;5.35;;;5.80;99.90;;;;;;5033562;28;20060;-66
2022/02/10 03:03:59;;;;;;;29.63;6.93;;;5.70;99.90;;;;;;5033647;28;20086;-66
2022/02/10 03:07:14;;;;;;;24.88;8.32;;;5.70;99.90;;;;;;5034477;28;20052;-66
2022/02/10 03:13:31;;;;;;;35.53;9.73;;;5.60;99.90;;;;;;5033822;28;20048;-66
2022/02/10 04:07:27;;;;;;;14.82;4.43;;;5.40;99.90;;;;;;5033139;28;20048;-68
2022/02/10 04:16:48;;;;;;;17.60;4.43;;;5.30;99.90;;;;;;5034708;28;20048;-68
2022/02/10 04:37:50;;;;;;;31.65;7.80;;;4.70;99.90;;;;;;5033517;28;20052;-68
2022/02/10 04:57:06;;;;;;;28.83;8.25;;;4.60;99.90;;;;;;5033663;28;20032;-68
2022/02/10 05:33:52;;;;;;;32.72;12.25;;;3.50;99.90;;;;;;5035723;28;20048;-68
2022/02/10 05:36:59;;;;;;;32.13;10.40;;;3.50;99.90;;;;;;5035145;28;20546;-68
2022/02/10 05:40:09;;;;;;;45.60;13.85;;;3.50;99.90;;;;;;5033182;28;20045;-68
2022/02/10 05:46:55;;;;;;;31.20;14.23;;;3.50;99.90;;;;;;5034647;28;20048;-68
2022/02/10 05:50:33;;;;;;;32.50;13.85;;;3.50;99.90;;;;;;5034269;28;20064;-68
2022/02/10 06:45:01;;;;;;;59.95;23.55;;;2.70;99.90;;;;;;5034472;28;20037;-68
2022/02/10 06:50:06;;;;;;;49.90;20.80;;;2.70;99.90;;;;;;5027704;28;20044;-68
2022/02/10 06:56:40;;;;;;;59.72;19.73;;;2.90;99.90;;;;;;5018726;28;20345;-68
2022/02/10 07:06:19;;;;;;;41.67;17.58;;;4.20;99.90;;;;;;5030907;28;19920;-68
2022/02/10 07:09:40;;;;;;;105.45;22.83;;;4.20;99.90;;;;;;5031604;28;20419;-68
2022/02/10 07:49:47;;;;;;;31.92;15.38;;;6.30;99.90;;;;;;5026943;28;19916;-65
2022/02/10 09:03:34;;;;;;;17.25;10.45;;;19.80;89.50;;;;;;5031248;28;20064;-66
2022/02/10 09:10:20;;;;;;;15.70;10.40;;;22.90;82.90;;;;;;5022662;28;20049;-67
2022/02/10 10:01:03;;;;;;;15.73;11.60;;;21.30;82.60;;;;;;5030278;28;20036;-67
2022/02/10 10:03:42;;;;;;;21.55;12.25;;;20.20;82.60;;;;;;5029174;28;20044;-66
2022/02/10 10:11:20;;;;;;;18.95;12.60;;;23.20;81.40;;;;;;5023869;28;20064;-67
2022/02/10 10:17:09;;;;;;;16.15;11.95;;;23.50;78.10;;;;;;5028162;28;20048;-67
2022/02/10 10:20:28;;;;;;;23.98;12.75;;;21.90;80.00;;;;;;5026578;28;20044;-67
2022/02/10 10:50:53;;;;;;;10.65;7.57;;;28.60;68.00;;;;;;5018697;28;20044;-67
2022/02/10 10:57:22;;;;;;;9.65;5.75;;;28.00;68.00;;;;;;5026750;28;20033;-67
2022/02/10 11:04:04;;;;;;;12.95;8.15;;;29.40;67.60;;;;;;5026714;28;20040;-67
2022/02/10 11:22:46;;;;;;;11.52;7.32;;;24.70;71.20;;;;;;5023797;28;20052;-67
2022/02/10 11:36:25;;;;;;;6.95;2.90;;;30.20;64.30;;;;;;5026971;28;20503;-68
2022/02/10 11:37:41;;;;;;;7.97;2.10;;;33.50;58.60;;;;;;5028995;28;20412;-68
2022/02/10 11:40:56;;;;;;;8.15;2.40;;;34.40;58.30;;;;;;5028222;28;20503;-65
2022/02/10 13:24:22;;;;;;;5.63;2.05;;;34.10;50.10;;;;;;5022977;28;20113;-69
2022/02/10 14:14:42;;;;;;;10.52;2.20;;;28.50;53.60;;;;;;5024984;28;20048;-71
2022/02/10 14:18:03;;;;;;;6.45;2.35;;;28.60;53.20;;;;;;5015690;28;20045;-72
2022/02/10 14:21:16;;;;;;;6.82;1.88;;;28.80;53.90;;;;;;5028150;28;20048;-71
2022/02/10 14:27:44;;;;;;;5.35;1.90;;;30.00;53.20;;;;;;5011902;28;20098;-72
2022/02/10 14:30:52;;;;;;;6.25;1.98;;;30.30;52.60;;;;;;5031629;28;20506;-71
2022/02/10 14:33:57;;;;;;;6.30;2.10;;;29.60;53.20;;;;;;5030730;28;20052;-72
2022/02/10 16:11:07;;;;;;;9.10;3.05;;;19.80;68.30;;;;;;5030856;28;20052;-69
2022/02/10 16:17:33;;;;;;;8.85;2.85;;;18.60;71.10;;;;;;5033955;28;20732;-68
2022/02/10 16:20:38;;;;;;;10.52;3.58;;;18.00;72.40;;;;;;5034218;28;20048;-68
2022/02/10 16:23:42;;;;;;;13.95;4.25;;;17.40;73.90;;;;;;5034094;28;20045;-68
2022/02/10 16:26:58;;;;;;;10.82;3.65;;;16.80;76.30;;;;;;5034490;28;20515;-70
2022/02/10 16:30:13;;;;;;;12.98;4.90;;;16.20;78.10;;;;;;5033627;28;20053;-69
2022/02/10 16:33:17;;;;;;;20.15;7.55;;;15.70;80.10;;;;;;5033497;28;20044;-68
2022/02/10 16:36:28;;;;;;;18.40;8.88;;;15.10;81.80;;;;;;5033424;28;20049;-68
2022/02/10 16:39:33;;;;;;;19.50;8.57;;;14.60;84.50;;;;;;5032307;28;20049;-68
2022/02/10 16:42:37;;;;;;;38.25;18.67;;;14.20;86.90;;;;;;5033392;28;20052;-68
2022/02/10 16:45:43;;;;;;;30.50;15.75;;;13.90;89.10;;;;;;5033936;28;20048;-69
2022/02/10 16:48:47;;;;;;;35.20;19.23;;;13.60;90.60;;;;;;5033491;28;20056;-68
2022/02/10 16:51:53;;;;;;;39.95;22.70;;;13.40;91.70;;;;;;5032953;28;20040;-68
2022/02/10 16:55:39;;;;;;;38.72;21.35;;;13.20;92.70;;;;;;5033008;28;20052;-68
2022/02/10 17:21:27;;;;;;;18.10;7.07;;;12.00;99.90;;;;;;5032584;28;20029;-70
2022/02/10 17:28:03;;;;;;;15.02;6.20;;;11.80;99.90;;;;;;5033052;28;20060;-70
2022/02/10 17:51:42;;;;;;;20.33;10.88;;;11.00;99.90;;;;;;5031653;28;20044;-70
2022/02/10 17:54:47;;;;;;;21.73;11.30;;;10.90;99.90;;;;;;5032065;28;20044;-69
2022/02/10 17:57:52;;;;;;;33.17;21.70;;;10.90;99.90;;;;;;5031988;28;20495;-70
2022/02/10 18:00:57;;;;;;;26.02;13.18;;;10.80;99.90;;;;;;5031490;28;20040;-70
2022/02/10 18:04:01;;;;;;;27.77;13.00;;;10.70;99.90;;;;;;5032182;28;20057;-69
2022/02/10 18:07:07;;;;;;;26.67;14.40;;;10.60;99.90;;;;;;5031385;28;20056;-70
2022/02/10 18:13:51;;;;;;;23.15;9.60;;;10.50;99.90;;;;;;5032503;28;20499;-69
2022/02/10 18:17:04;;;;;;;21.58;8.50;;;10.40;99.90;;;;;;5031954;28;20053;-70
2022/02/10 18:20:21;;;;;;;34.17;19.90;;;10.30;99.90;;;;;;5031471;28;20065;-70
2022/02/10 18:23:34;;;;;;;23.08;12.38;;;10.30;99.90;;;;;;5031391;28;20400;-69
2022/02/10 19:09:46;;;;;;;21.73;8.05;;;9.40;99.90;;;;;;5029985;28;20048;-69
2022/02/10 19:12:55;;;;;;;11.75;6.22;;;9.30;99.90;;;;;;5030597;28;20044;-70
2022/02/10 19:15:59;;;;;;;13.73;7.00;;;9.30;99.90;;;;;;5030266;28;20044;-70
2022/02/10 19:19:04;;;;;;;14.90;5.38;;;9.20;99.90;;;;;;5029809;28;20052;-69
2022/02/10 19:22:08;;;;;;;25.80;6.07;;;9.20;99.90;;;;;;5028933;28;20044;-70
2022/02/10 19:25:13;;;;;;;14.05;7.45;;;9.20;99.90;;;;;;5030220;28;20053;-69
2022/02/10 19:28:18;;;;;;;18.77;8.20;;;9.10;99.90;;;;;;5029968;28;20052;-70
2022/02/10 19:31:24;;;;;;;16.02;9.27;;;9.10;99.90;;;;;;5030285;28;20064;-69
2022/02/10 19:34:33;;;;;;;15.43;5.95;;;9.10;99.90;;;;;;5029897;28;20052;-69
2022/02/10 19:37:37;;;;;;;14.82;5.22;;;9.10;99.90;;;;;;5029905;28;20041;-70
2022/02/10 19:40:42;;;;;;;12.20;6.70;;;9.00;99.90;;;;;;5029413;28;20108;-70
2022/02/10 19:43:48;;;;;;;13.75;6.60;;;9.00;99.90;;;;;;5030236;28;20400;-70
2022/02/10 19:46:51;;;;;;;22.65;12.23;;;9.00;99.90;;;;;;5031612;28;20056;-69
2022/02/10 19:49:57;;;;;;;32.75;14.55;;;9.00;99.90;;;;;;5034232;28;20500;-70
2022/02/10 19:53:05;;;;;;;33.20;18.30;;;9.00;99.90;;;;;;5034190;28;20048;-69
2022/02/10 19:56:12;;;;;;;19.45;8.82;;;9.00;99.90;;;;;;5033413;28;20040;-70
2022/02/10 19:59:19;;;;;;;52.40;30.23;;;9.00;99.90;;;;;;5033790;28;20045;-70
2022/02/10 20:02:24;;;;;;;16.30;8.18;;;8.90;99.90;;;;;;5034435;28;20124;-69
2022/02/10 20:05:30;;;;;;;11.73;6.55;;;8.80;99.90;;;;;;5033825;28;20392;-70
2022/02/10 20:08:34;;;;;;;13.25;6.20;;;8.80;99.90;;;;;;5033319;28;20372;-69
2022/02/10 20:11:39;;;;;;;16.20;7.93;;;8.70;99.90;;;;;;5033549;28;20044;-69
2022/02/10 20:14:44;;;;;;;15.45;8.48;;;8.70;99.90;;;;;;5033878;28;20041;-70
2022/02/10 20:17:51;;;;;;;12.43;6.30;;;8.60;99.90;;;;;;5033324;28;20048;-70
2022/02/10 20:20:55;;;;;;;28.42;14.13;;;8.60;99.90;;;;;;5033810;28;20103;-70
2022/02/10 20:23:59;;;;;;;10.80;5.88;;;8.60;99.90;;;;;;5033682;28;20052;-70
2022/02/10 20:27:03;;;;;;;23.92;10.65;;;8.60;99.90;;;;;;5033376;28;20053;-70
2022/02/10 20:30:08;;;;;;;25.55;13.57;;;8.50;99.90;;;;;;5032032;28;20056;-70
2022/02/10 20:33:12;;;;;;;25.45;12.20;;;8.50;99.90;;;;;;5033158;28;20048;-70
2022/02/10 20:36:18;;;;;;;15.75;6.38;;;8.40;99.90;;;;;;5033269;28;20044;-69
2022/02/10 20:39:26;;;;;;;12.30;5.30;;;8.40;99.90;;;;;;5031595;28;20035;-70
2022/02/10 20:42:32;;;;;;;19.55;6.78;;;8.40;99.90;;;;;;5032881;28;20048;-69
2022/02/10 20:45:37;;;;;;;13.02;5.72;;;8.30;99.90;;;;;;5033241;28;20062;-70
2022/02/10 20:48:42;;;;;;;15.38;7.30;;;8.20;99.90;;;;;;5032916;28;20400;-69
2022/02/10 20:51:49;;;;;;;13.50;6.57;;;8.20;99.90;;;;;;5033235;28;20117;-70
2022/02/10 20:54:53;;;;;;;15.75;5.07;;;8.20;99.90;;;;;;5033153;28;20044;-70
2022/02/10 20:57:57;;;;;;;27.42;12.90;;;8.20;99.90;;;;;;5032332;28;20040;-68
2022/02/10 21:01:03;;;;;;;19.77;9.95;;;8.20;99.90;;;;;;5033094;28;20069;-69
2022/02/10 21:04:09;;;;;;;20.30;9.38;;;8.20;99.90;;;;;;5032630;28;20052;-69
2022/02/10 21:07:31;;;;;;;15.40;7.35;;;8.20;99.90;;;;;;5032697;28;20053;-69
2022/02/10 21:10:37;;;;;;;13.35;5.68;;;8.20;99.90;;;;;;5032374;28;20049;-70
2022/02/10 21:13:41;;;;;;;24.55;12.25;;;8.10;99.90;;;;;;5032325;28;20044;-70
2022/02/10 21:16:45;;;;;;;15.82;7.00;;;8.10;99.90;;;;;;5032849;28;20068;-69
2022/02/10 21:19:49;;;;;;;14.82;7.97;;;8.10;99.90;;;;;;5032164;28;20056;-69
2022/02/10 21:23:02;;;;;;;12.10;4.93;;;8.00;99.90;;;;;;5032903;28;20432;-69
2022/02/10 21:26:07;;;;;;;11.73;5.47;;;7.90;99.90;;;;;;5032519;28;20412;-70
2022/02/10 21:29:11;;;;;;;11.48;4.30;;;7.90;99.90;;;;;;5031662;28;20048;-70
2022/02/10 21:32:15;;;;;;;11.88;4.50;;;7.90;99.90;;;;;;5032066;28;20503;-69
2022/02/10 21:38:29;;;;;;;9.77;3.45;;;7.80;99.90;;;;;;5031879;28;20044;-69
2022/02/10 22:21:19;;;;;;;46.47;24.00;;;7.60;99.90;;;;;;5030308;28;20415;-69
2022/02/10 22:24:24;;;;;;;16.38;6.57;;;7.50;99.90;;;;;;5031194;28;20045;-69
2022/02/10 22:27:32;;;;;;;19.45;8.60;;;7.50;99.90;;;;;;5031250;28;20045;-69
2022/02/10 22:30:45;;;;;;;17.30;10.45;;;7.50;99.90;;;;;;5031102;28;20183;-70
2022/02/10 22:37:00;;;;;;;17.80;7.75;;;7.40;99.90;;;;;;5030785;28;20044;-69
2022/02/10 22:40:11;;;;;;;21.55;13.98;;;7.40;99.90;;;;;;5031016;28;20040;-70
2022/02/10 22:43:15;;;;;;;26.23;11.35;;;7.40;99.90;;;;;;5031518;28;20488;-69
2022/02/10 22:46:20;;;;;;;17.70;5.50;;;7.40;99.90;;;;;;5030793;28;20056;-70
2022/02/10 22:49:24;;;;;;;13.65;4.80;;;7.30;99.90;;;;;;5030552;28;20040;-69
2022/02/10 22:52:29;;;;;;;10.80;3.38;;;7.30;99.90;;;;;;5030780;28;20052;-69
2022/02/10 22:55:36;;;;;;;15.23;4.22;;;7.20;99.90;;;;;;5032244;28;20783;-69
2022/02/10 22:58:41;;;;;;;5.47;3.03;;;7.20;99.90;;;;;;5031501;28;20040;-69
2022/02/10 23:01:47;;;;;;;11.95;4.90;;;7.00;99.90;;;;;;5031005;28;20040;-70
2022/02/10 23:04:50;;;;;;;13.52;5.20;;;6.80;99.90;;;;;;5031609;28;20056;-69
2022/02/10 23:07:57;;;;;;;12.55;4.72;;;6.70;99.90;;;;;;5031207;28;20044;-69
2022/02/10 23:11:04;;;;;;;13.85;5.13;;;6.70;99.90;;;;;;5030258;28;20032;-69
2022/02/10 23:14:08;;;;;;;21.38;6.70;;;6.60;99.90;;;;;;5030531;28;20048;-69
2022/02/10 23:17:12;;;;;;;16.45;6.85;;;6.50;99.90;;;;;;5031884;28;20060;-69
2022/02/10 23:20:19;;;;;;;17.13;5.00;;;6.50;99.90;;;;;;5030798;28;20044;-69
2022/02/10 23:23:24;;;;;;;14.05;6.15;;;6.50;99.90;;;;;;5033158;28;20056;-69
2022/02/10 23:26:28;;;;;;;23.80;9.55;;;6.40;99.90;;;;;;5033948;28;20048;-69
2022/02/10 23:29:33;;;;;;;18.23;7.60;;;6.40;99.90;;;;;;5030475;28;20040;-69
2022/02/10 23:32:37;;;;;;;17.73;7.72;;;6.30;99.90;;;;;;5032043;28;20068;-70
2022/02/10 23:39:21;;;;;;;18.83;7.70;;;6.40;99.90;;;;;;5029734;28;21002;-69
2022/02/10 23:42:31;;;;;;;20.38;9.10;;;6.30;99.90;;;;;;5029827;28;20044;-69
2022/02/10 23:45:40;;;;;;;21.17;11.48;;;6.30;99.90;;;;;;5030512;28;20052;-70
2022/02/10 23:48:45;;;;;;;19.10;10.32;;;6.20;99.90;;;;;;5030820;28;20487;-69
2022/02/10 23:51:56;;;;;;;21.52;10.98;;;6.30;99.90;;;;;;5030051;28;20052;-69
2022/02/10 23:55:07;;;;;;;20.70;11.13;;;6.30;99.90;;;;;;5030057;28;20044;-70
